sensor_id;sensor_type;location;lat;lon;timestamp;temperature;humidity
66670;DHT22;53568;52.164;4.472;2022-12-07T00:01:16;8.65;71.02
66670;DHT22;53568;52.164;4.472;2022-12-07T00:03:43;8.66;71.24
66670;DHT22;53568;52.164;4.472;2022-12-07T00:06:11;8.62;70.69
66670;DHT22;53568;52.164;4.472;2022-12-07T00:08:37;8.45;70.87
66670;DHT22;53568;52.164;4.472;2022-12-07T00:11:05;8.24;71.29
66670;DHT22;53568;52.164;4.472;2022-12-07T00:13:32;8.27;71.49
66670;DHT22;53568;52.164;4.472;2022-12-07T00:16:04;8.12;71.15
66670;DHT22;53568;52.164;4.472;2022-12-07T00:18:30;8.15;71.30
66670;DHT22;53568;52.164;4.472;2022-12-07T00:21:05;8.25;70.27
66670;DHT22;53568;52.164;4.472;2022-12-07T00:23:31;8.31;69.78
66670;DHT22;53568;52.164;4.472;2022-12-07T00:28:40;8.59;68.12
66670;DHT22;53568;52.164;4.472;2022-12-07T00:31:09;8.49;68.34
66670;DHT22;53568;52.164;4.472;2022-12-07T00:33:36;8.48;69.25
66670;DHT22;53568;52.164;4.472;2022-12-07T00:36:06;8.28;70.73
66670;DHT22;53568;52.164;4.472;2022-12-07T00:38:34;7.94;72.73
66670;DHT22;53568;52.164;4.472;2022-12-07T00:41:06;7.53;72.50
66670;DHT22;53568;52.164;4.472;2022-12-07T00:43:32;7.61;72.23
66670;DHT22;53568;52.164;4.472;2022-12-07T00:45:58;7.70;70.31
66670;DHT22;53568;52.164;4.472;2022-12-07T00:48:24;7.81;68.78
66670;DHT22;53568;52.164;4.472;2022-12-07T00:50:51;8.04;68.07
66670;DHT22;53568;52.164;4.472;2022-12-07T00:53:18;8.18;68.07
66670;DHT22;53568;52.164;4.472;2022-12-07T00:55:44;8.31;68.37
66670;DHT22;53568;52.164;4.472;2022-12-07T00:58:10;8.24;69.09
66670;DHT22;53568;52.164;4.472;2022-12-07T01:00:38;8.31;69.53
66670;DHT22;53568;52.164;4.472;2022-12-07T01:03:06;8.27;69.90
66670;DHT22;53568;52.164;4.472;2022-12-07T01:05:31;8.27;69.99
66670;DHT22;53568;52.164;4.472;2022-12-07T01:07:57;8.15;70.44
66670;DHT22;53568;52.164;4.472;2022-12-07T01:10:23;8.04;70.58
66670;DHT22;53568;52.164;4.472;2022-12-07T01:12:48;7.99;70.62
66670;DHT22;53568;52.164;4.472;2022-12-07T01:15:14;7.99;69.74
66670;DHT22;53568;52.164;4.472;2022-12-07T01:17:39;7.98;69.88
66670;DHT22;53568;52.164;4.472;2022-12-07T01:20:06;8.04;69.73
66670;DHT22;53568;52.164;4.472;2022-12-07T01:22:36;7.99;69.96
66670;DHT22;53568;52.164;4.472;2022-12-07T01:25:03;8.02;69.91
66670;DHT22;53568;52.164;4.472;2022-12-07T01:27:28;7.93;70.30
66670;DHT22;53568;52.164;4.472;2022-12-07T01:29:54;8.01;70.54
66670;DHT22;53568;52.164;4.472;2022-12-07T01:32:19;7.90;71.74
66670;DHT22;53568;52.164;4.472;2022-12-07T01:34:47;7.98;70.93
66670;DHT22;53568;52.164;4.472;2022-12-07T01:37:13;7.83;71.23
66670;DHT22;53568;52.164;4.472;2022-12-07T01:39:39;7.93;71.71
66670;DHT22;53568;52.164;4.472;2022-12-07T01:42:04;8.01;71.90
66670;DHT22;53568;52.164;4.472;2022-12-07T01:44:30;8.11;71.81
66670;DHT22;53568;52.164;4.472;2022-12-07T01:47:00;8.08;71.76
66670;DHT22;53568;52.164;4.472;2022-12-07T01:52:02;8.35;71.07
66670;DHT22;53568;52.164;4.472;2022-12-07T01:54:28;8.41;70.64
66670;DHT22;53568;52.164;4.472;2022-12-07T01:56:56;8.41;70.52
66670;DHT22;53568;52.164;4.472;2022-12-07T01:59:25;8.41;70.48
66670;DHT22;53568;52.164;4.472;2022-12-07T02:01:53;8.52;70.25
66670;DHT22;53568;52.164;4.472;2022-12-07T02:04:23;8.63;69.90
66670;DHT22;53568;52.164;4.472;2022-12-07T02:06:50;8.63;69.73
66670;DHT22;53568;52.164;4.472;2022-12-07T02:09:16;8.63;70.00
66670;DHT22;53568;52.164;4.472;2022-12-07T02:11:41;8.63;70.42
66670;DHT22;53568;52.164;4.472;2022-12-07T02:14:07;8.61;71.02
66670;DHT22;53568;52.164;4.472;2022-12-07T02:16:36;8.48;71.85
66670;DHT22;53568;52.164;4.472;2022-12-07T02:22:08;8.34;72.62
66670;DHT22;53568;52.164;4.472;2022-12-07T02:33:03;8.18;74.22
66670;DHT22;53568;52.164;4.472;2022-12-07T02:38:19;8.21;73.60
66670;DHT22;53568;52.164;4.472;2022-12-07T02:43:52;8.15;74.31
66670;DHT22;53568;52.164;4.472;2022-12-07T02:46:26;8.21;74.42
66670;DHT22;53568;52.164;4.472;2022-12-07T02:48:54;8.25;74.11
66670;DHT22;53568;52.164;4.472;2022-12-07T02:51:22;8.31;73.69
66670;DHT22;53568;52.164;4.472;2022-12-07T02:53:47;8.32;73.39
66670;DHT22;53568;52.164;4.472;2022-12-07T02:56:35;8.31;73.11
66670;DHT22;53568;52.164;4.472;2022-12-07T02:59:25;8.46;72.77
66670;DHT22;53568;52.164;4.472;2022-12-07T03:07:33;7.98;71.70
66670;DHT22;53568;52.164;4.472;2022-12-07T03:10:23;7.97;72.09
66670;DHT22;53568;52.164;4.472;2022-12-07T03:18:25;7.81;71.77
66670;DHT22;53568;52.164;4.472;2022-12-07T03:20:56;7.78;71.39
66670;DHT22;53568;52.164;4.472;2022-12-07T03:23:25;8.01;70.62
66670;DHT22;53568;52.164;4.472;2022-12-07T03:25:57;8.07;70.66
66670;DHT22;53568;52.164;4.472;2022-12-07T03:28:29;8.15;70.06
66670;DHT22;53568;52.164;4.472;2022-12-07T03:31:03;8.25;69.86
66670;DHT22;53568;52.164;4.472;2022-12-07T03:33:52;8.32;69.76
66670;DHT22;53568;52.164;4.472;2022-12-07T03:36:29;8.25;69.98
66670;DHT22;53568;52.164;4.472;2022-12-07T03:39:22;8.31;69.96
66670;DHT22;53568;52.164;4.472;2022-12-07T03:41:49;8.35;69.72
66670;DHT22;53568;52.164;4.472;2022-12-07T03:44:16;8.31;69.74
66670;DHT22;53568;52.164;4.472;2022-12-07T03:52:10;8.37;69.14
66670;DHT22;53568;52.164;4.472;2022-12-07T03:54:43;8.15;69.31
66670;DHT22;53568;52.164;4.472;2022-12-07T03:57:12;8.28;68.31
66670;DHT22;53568;52.164;4.472;2022-12-07T03:59:39;8.20;68.53
66670;DHT22;53568;52.164;4.472;2022-12-07T04:02:07;8.18;68.44
66670;DHT22;53568;52.164;4.472;2022-12-07T04:04:34;7.88;69.68
66670;DHT22;53568;52.164;4.472;2022-12-07T04:07:00;7.80;69.15
66670;DHT22;53568;52.164;4.472;2022-12-07T04:09:25;7.78;67.70
66670;DHT22;53568;52.164;4.472;2022-12-07T04:11:51;7.77;65.01
66670;DHT22;53568;52.164;4.472;2022-12-07T04:14:17;7.91;64.46
66670;DHT22;53568;52.164;4.472;2022-12-07T04:16:56;8.02;63.46
66670;DHT22;53568;52.164;4.472;2022-12-07T04:19:27;8.01;63.83
66670;DHT22;53568;52.164;4.472;2022-12-07T04:21:53;8.09;64.72
66670;DHT22;53568;52.164;4.472;2022-12-07T04:24:18;8.15;65.68
66670;DHT22;53568;52.164;4.472;2022-12-07T04:26:46;8.02;67.42
66670;DHT22;53568;52.164;4.472;2022-12-07T04:29:12;8.02;69.07
66670;DHT22;53568;52.164;4.472;2022-12-07T04:31:39;8.02;69.92
66670;DHT22;53568;52.164;4.472;2022-12-07T04:34:06;7.80;71.67
66670;DHT22;53568;52.164;4.472;2022-12-07T04:36:32;7.91;72.02
66670;DHT22;53568;52.164;4.472;2022-12-07T04:38:57;7.87;72.63
66670;DHT22;53568;52.164;4.472;2022-12-07T04:41:24;7.83;73.00
66670;DHT22;53568;52.164;4.472;2022-12-07T04:44:03;7.81;73.49
66670;DHT22;53568;52.164;4.472;2022-12-07T04:46:31;7.71;73.27
66670;DHT22;53568;52.164;4.472;2022-12-07T04:48:57;7.77;73.04
66670;DHT22;53568;52.164;4.472;2022-12-07T04:51:26;7.75;72.35
66670;DHT22;53568;52.164;4.472;2022-12-07T04:53:52;7.81;70.52
66670;DHT22;53568;52.164;4.472;2022-12-07T04:56:17;7.83;69.46
66670;DHT22;53568;52.164;4.472;2022-12-07T04:58:45;7.90;68.94
66670;DHT22;53568;52.164;4.472;2022-12-07T05:01:10;8.01;68.82
66670;DHT22;53568;52.164;4.472;2022-12-07T05:03:37;8.05;68.80
66670;DHT22;53568;52.164;4.472;2022-12-07T05:06:03;8.15;68.85
66670;DHT22;53568;52.164;4.472;2022-12-07T05:08:29;8.21;68.89
66670;DHT22;53568;52.164;4.472;2022-12-07T05:10:55;8.31;68.76
66670;DHT22;53568;52.164;4.472;2022-12-07T05:13:20;8.27;68.67
66670;DHT22;53568;52.164;4.472;2022-12-07T05:15:47;8.28;68.26
66670;DHT22;53568;52.164;4.472;2022-12-07T05:18:12;8.25;68.03
66670;DHT22;53568;52.164;4.472;2022-12-07T05:20:39;8.35;67.52
66670;DHT22;53568;52.164;4.472;2022-12-07T05:23:05;8.37;67.63
66670;DHT22;53568;52.164;4.472;2022-12-07T05:25:30;8.37;67.30
66670;DHT22;53568;52.164;4.472;2022-12-07T05:27:56;8.41;66.50
66670;DHT22;53568;52.164;4.472;2022-12-07T05:30:23;8.25;66.67
66670;DHT22;53568;52.164;4.472;2022-12-07T05:32:49;8.31;66.58
66670;DHT22;53568;52.164;4.472;2022-12-07T05:35:15;8.42;66.09
66670;DHT22;53568;52.164;4.472;2022-12-07T05:37:41;8.39;65.81
66670;DHT22;53568;52.164;4.472;2022-12-07T05:40:08;8.39;65.92
66670;DHT22;53568;52.164;4.472;2022-12-07T05:42:39;8.32;66.24
66670;DHT22;53568;52.164;4.472;2022-12-07T05:45:06;8.32;66.42
66670;DHT22;53568;52.164;4.472;2022-12-07T05:47:31;8.42;66.68
66670;DHT22;53568;52.164;4.472;2022-12-07T05:50:01;8.39;66.98
66670;DHT22;53568;52.164;4.472;2022-12-07T05:52:26;8.41;67.39
66670;DHT22;53568;52.164;4.472;2022-12-07T05:54:52;8.38;67.82
66670;DHT22;53568;52.164;4.472;2022-12-07T05:57:18;8.32;67.98
66670;DHT22;53568;52.164;4.472;2022-12-07T05:59:44;8.21;68.46
66670;DHT22;53568;52.164;4.472;2022-12-07T06:02:12;8.29;68.35
66670;DHT22;53568;52.164;4.472;2022-12-07T06:04:41;8.39;68.18
66670;DHT22;53568;52.164;4.472;2022-12-07T06:07:08;8.32;68.51
66670;DHT22;53568;52.164;4.472;2022-12-07T06:09:34;8.32;68.89
66670;DHT22;53568;52.164;4.472;2022-12-07T06:12:00;8.32;68.88
66670;DHT22;53568;52.164;4.472;2022-12-07T06:14:45;8.39;68.60
66670;DHT22;53568;52.164;4.472;2022-12-07T06:17:11;8.46;68.44
66670;DHT22;53568;52.164;4.472;2022-12-07T06:19:38;8.42;68.20
66670;DHT22;53568;52.164;4.472;2022-12-07T06:22:04;8.22;69.08
66670;DHT22;53568;52.164;4.472;2022-12-07T06:24:31;8.11;70.38
66670;DHT22;53568;52.164;4.472;2022-12-07T06:26:57;7.91;72.06
66670;DHT22;53568;52.164;4.472;2022-12-07T06:29:23;7.75;73.19
66670;DHT22;53568;52.164;4.472;2022-12-07T06:31:48;7.70;74.02
66670;DHT22;53568;52.164;4.472;2022-12-07T06:34:17;7.80;72.96
66670;DHT22;53568;52.164;4.472;2022-12-07T06:36:43;7.77;73.54
66670;DHT22;53568;52.164;4.472;2022-12-07T06:39:10;7.78;72.02
66670;DHT22;53568;52.164;4.472;2022-12-07T06:41:37;7.78;72.21
66670;DHT22;53568;52.164;4.472;2022-12-07T06:44:03;7.80;71.76
66670;DHT22;53568;52.164;4.472;2022-12-07T06:46:29;7.84;71.30
66670;DHT22;53568;52.164;4.472;2022-12-07T06:48:55;7.87;71.08
66670;DHT22;53568;52.164;4.472;2022-12-07T06:51:20;7.95;70.54
66670;DHT22;53568;52.164;4.472;2022-12-07T06:53:46;7.99;70.18
66670;DHT22;53568;52.164;4.472;2022-12-07T06:56:11;8.04;70.05
66670;DHT22;53568;52.164;4.472;2022-12-07T06:58:37;8.04;69.79
66670;DHT22;53568;52.164;4.472;2022-12-07T07:01:02;8.17;69.42
66670;DHT22;53568;52.164;4.472;2022-12-07T07:03:28;8.20;69.50
66670;DHT22;53568;52.164;4.472;2022-12-07T07:05:54;8.14;69.92
66670;DHT22;53568;52.164;4.472;2022-12-07T07:08:22;8.17;70.16
66670;DHT22;53568;52.164;4.472;2022-12-07T07:10:47;8.27;69.68
66670;DHT22;53568;52.164;4.472;2022-12-07T07:13:13;8.32;69.63
66670;DHT22;53568;52.164;4.472;2022-12-07T07:15:38;8.34;69.78
66670;DHT22;53568;52.164;4.472;2022-12-07T07:18:04;8.20;70.53
66670;DHT22;53568;52.164;4.472;2022-12-07T07:20:30;8.15;70.41
66670;DHT22;53568;52.164;4.472;2022-12-07T07:22:55;8.02;70.98
66670;DHT22;53568;52.164;4.472;2022-12-07T07:25:22;7.90;71.77
66670;DHT22;53568;52.164;4.472;2022-12-07T07:27:47;7.78;72.24
66670;DHT22;53568;52.164;4.472;2022-12-07T07:30:13;7.74;72.11
66670;DHT22;53568;52.164;4.472;2022-12-07T07:32:38;7.77;72.11
66670;DHT22;53568;52.164;4.472;2022-12-07T07:35:05;7.80;72.00
66670;DHT22;53568;52.164;4.472;2022-12-07T07:37:30;7.85;72.03
66670;DHT22;53568;52.164;4.472;2022-12-07T07:39:56;7.93;71.59
66670;DHT22;53568;52.164;4.472;2022-12-07T07:42:21;7.94;71.38
66670;DHT22;53568;52.164;4.472;2022-12-07T07:44:47;7.87;71.49
66670;DHT22;53568;52.164;4.472;2022-12-07T07:47:13;7.98;70.98
66670;DHT22;53568;52.164;4.472;2022-12-07T07:49:38;8.02;71.00
66670;DHT22;53568;52.164;4.472;2022-12-07T07:52:05;8.14;70.73
66670;DHT22;53568;52.164;4.472;2022-12-07T07:54:31;8.20;69.85
66670;DHT22;53568;52.164;4.472;2022-12-07T07:56:57;8.25;69.05
66670;DHT22;53568;52.164;4.472;2022-12-07T07:59:22;8.15;68.21
66670;DHT22;53568;52.164;4.472;2022-12-07T08:01:48;7.95;68.87
66670;DHT22;53568;52.164;4.472;2022-12-07T08:04:14;7.74;70.22
66670;DHT22;53568;52.164;4.472;2022-12-07T08:06:39;7.57;71.08
66670;DHT22;53568;52.164;4.472;2022-12-07T08:09:08;7.37;72.52
66670;DHT22;53568;52.164;4.472;2022-12-07T08:11:34;7.27;72.48
66670;DHT22;53568;52.164;4.472;2022-12-07T08:14:00;7.19;73.12
66670;DHT22;53568;52.164;4.472;2022-12-07T08:16:25;7.33;72.39
66670;DHT22;53568;52.164;4.472;2022-12-07T08:18:51;7.42;72.28
66670;DHT22;53568;52.164;4.472;2022-12-07T08:21:16;7.47;71.68
66670;DHT22;53568;52.164;4.472;2022-12-07T08:23:42;7.53;71.22
66670;DHT22;53568;52.164;4.472;2022-12-07T08:26:11;7.61;70.65
66670;DHT22;53568;52.164;4.472;2022-12-07T08:28:37;7.66;70.79
66670;DHT22;53568;52.164;4.472;2022-12-07T08:31:06;7.80;69.98
66670;DHT22;53568;52.164;4.472;2022-12-07T08:33:33;7.87;70.08
66670;DHT22;53568;52.164;4.472;2022-12-07T08:36:07;7.88;69.79
66670;DHT22;53568;52.164;4.472;2022-12-07T08:38:37;8.02;69.73
66670;DHT22;53568;52.164;4.472;2022-12-07T08:41:03;8.05;68.85
66670;DHT22;53568;52.164;4.472;2022-12-07T08:43:30;8.22;68.00
66670;DHT22;53568;52.164;4.472;2022-12-07T08:46:18;8.29;68.20
66670;DHT22;53568;52.164;4.472;2022-12-07T08:48:51;8.39;68.04
66670;DHT22;53568;52.164;4.472;2022-12-07T08:51:19;8.46;67.43
66670;DHT22;53568;52.164;4.472;2022-12-07T08:53:46;8.52;67.39
66670;DHT22;53568;52.164;4.472;2022-12-07T08:56:12;8.48;67.34
66670;DHT22;53568;52.164;4.472;2022-12-07T08:58:39;8.55;67.37
66670;DHT22;53568;52.164;4.472;2022-12-07T09:01:05;8.48;67.63
66670;DHT22;53568;52.164;4.472;2022-12-07T09:03:31;8.46;67.71
66670;DHT22;53568;52.164;4.472;2022-12-07T09:05:58;8.56;67.63
66670;DHT22;53568;52.164;4.472;2022-12-07T09:08:31;8.62;67.62
66670;DHT22;53568;52.164;4.472;2022-12-07T09:10:58;8.71;67.77
66670;DHT22;53568;52.164;4.472;2022-12-07T09:13:23;8.79;67.61
66670;DHT22;53568;52.164;4.472;2022-12-07T09:15:49;8.80;67.39
66670;DHT22;53568;52.164;4.472;2022-12-07T09:18:14;8.77;67.97
66670;DHT22;53568;52.164;4.472;2022-12-07T09:20:40;8.83;67.97
66670;DHT22;53568;52.164;4.472;2022-12-07T09:23:06;8.93;67.69
66670;DHT22;53568;52.164;4.472;2022-12-07T09:25:32;9.07;67.77
66670;DHT22;53568;52.164;4.472;2022-12-07T09:27:58;9.15;67.79
66670;DHT22;53568;52.164;4.472;2022-12-07T09:30:25;9.12;68.18
66670;DHT22;53568;52.164;4.472;2022-12-07T09:32:56;9.12;68.57
66670;DHT22;53568;52.164;4.472;2022-12-07T09:35:23;9.02;69.08
66670;DHT22;53568;52.164;4.472;2022-12-07T09:37:49;8.87;69.75
66670;DHT22;53568;52.164;4.472;2022-12-07T09:40:17;8.79;69.88
66670;DHT22;53568;52.164;4.472;2022-12-07T09:42:48;8.90;69.92
66670;DHT22;53568;52.164;4.472;2022-12-07T09:45:33;8.79;69.99
66670;DHT22;53568;52.164;4.472;2022-12-07T09:47:59;8.85;69.76
66670;DHT22;53568;52.164;4.472;2022-12-07T09:50:28;8.71;69.53
66670;DHT22;53568;52.164;4.472;2022-12-07T09:53:24;8.65;69.29
66670;DHT22;53568;52.164;4.472;2022-12-07T09:55:47;8.62;68.27
66670;DHT22;53568;52.164;4.472;2022-12-07T09:58:25;8.53;68.72
66670;DHT22;53568;52.164;4.472;2022-12-07T10:01:17;8.71;67.80
66670;DHT22;53568;52.164;4.472;2022-12-07T10:03:55;8.69;68.13
66670;DHT22;53568;52.164;4.472;2022-12-07T10:06:24;8.69;68.02
66670;DHT22;53568;52.164;4.472;2022-12-07T10:08:49;8.73;67.57
66670;DHT22;53568;52.164;4.472;2022-12-07T10:11:15;8.73;67.62
66670;DHT22;53568;52.164;4.472;2022-12-07T10:13:44;8.79;67.81
66670;DHT22;53568;52.164;4.472;2022-12-07T10:18:49;8.87;67.34
66670;DHT22;53568;52.164;4.472;2022-12-07T10:21:18;8.96;66.58
66670;DHT22;53568;52.164;4.472;2022-12-07T10:24:14;8.95;66.14
66670;DHT22;53568;52.164;4.472;2022-12-07T10:29:20;8.77;66.20
66670;DHT22;53568;52.164;4.472;2022-12-07T10:31:55;8.90;66.32
66670;DHT22;53568;52.164;4.472;2022-12-07T10:34:36;8.96;66.32
66670;DHT22;53568;52.164;4.472;2022-12-07T10:39:49;8.96;66.13
66670;DHT22;53568;52.164;4.472;2022-12-07T10:42:23;8.87;65.76
66670;DHT22;53568;52.164;4.472;2022-12-07T10:45:12;9.10;65.41
66670;DHT22;53568;52.164;4.472;2022-12-07T11:12:06;9.17;61.66
66670;DHT22;53568;52.164;4.472;2022-12-07T11:14:44;9.16;62.10
66670;DHT22;53568;52.164;4.472;2022-12-07T11:23:14;9.06;63.05
66670;DHT22;53568;52.164;4.472;2022-12-07T11:25:52;8.75;65.67
66670;DHT22;53568;52.164;4.472;2022-12-07T11:31:36;8.37;66.37
66670;DHT22;53568;52.164;4.472;2022-12-07T11:36:52;8.41;67.44
66670;DHT22;53568;52.164;4.472;2022-12-07T11:42:00;8.31;67.09
66670;DHT22;53568;52.164;4.472;2022-12-07T11:47:28;8.48;67.48
66670;DHT22;53568;52.164;4.472;2022-12-07T11:50:37;8.46;67.51
66670;DHT22;53568;52.164;4.472;2022-12-07T11:53:19;8.55;68.00
66670;DHT22;53568;52.164;4.472;2022-12-07T11:56:03;8.65;67.94
66670;DHT22;53568;52.164;4.472;2022-12-07T12:03:48;8.90;68.52
66670;DHT22;53568;52.164;4.472;2022-12-07T12:06:15;8.90;68.57
66670;DHT22;53568;52.164;4.472;2022-12-07T12:11:55;9.07;68.85
66670;DHT22;53568;52.164;4.472;2022-12-07T12:22:37;9.31;68.93
66670;DHT22;53568;52.164;4.472;2022-12-07T12:25:31;9.38;68.47
66670;DHT22;53568;52.164;4.472;2022-12-07T12:28:02;9.50;68.05
66670;DHT22;53568;52.164;4.472;2022-12-07T12:30:32;9.64;67.59
66670;DHT22;53568;52.164;4.472;2022-12-07T12:33:20;9.69;67.08
66670;DHT22;53568;52.164;4.472;2022-12-07T12:39:09;9.02;67.87
66670;DHT22;53568;52.164;4.472;2022-12-07T12:51:51;8.85;65.90
66670;DHT22;53568;52.164;4.472;2022-12-07T12:54:26;8.87;65.83
66670;DHT22;53568;52.164;4.472;2022-12-07T12:57:27;8.79;64.94
66670;DHT22;53568;52.164;4.472;2022-12-07T13:02:25;8.89;64.02
66670;DHT22;53568;52.164;4.472;2022-12-07T13:29:20;8.58;64.98
66670;DHT22;53568;52.164;4.472;2022-12-07T13:31:47;8.22;66.91
66670;DHT22;53568;52.164;4.472;2022-12-07T13:34:39;7.91;68.06
66670;DHT22;53568;52.164;4.472;2022-12-07T13:39:55;7.85;67.28
66670;DHT22;53568;52.164;4.472;2022-12-07T13:44:47;7.75;67.04
66670;DHT22;53568;52.164;4.472;2022-12-07T13:49:56;7.93;65.49
66670;DHT22;53568;52.164;4.472;2022-12-07T13:52:25;8.09;65.18
66670;DHT22;53568;52.164;4.472;2022-12-07T13:54:57;8.20;64.94
66670;DHT22;53568;52.164;4.472;2022-12-07T13:57:29;8.28;64.95
66670;DHT22;53568;52.164;4.472;2022-12-07T13:59:57;8.22;65.44
66670;DHT22;53568;52.164;4.472;2022-12-07T14:05:05;8.52;65.01
66670;DHT22;53568;52.164;4.472;2022-12-07T14:07:33;8.56;65.12
66670;DHT22;53568;52.164;4.472;2022-12-07T14:10:02;8.61;64.61
66670;DHT22;53568;52.164;4.472;2022-12-07T14:12:30;8.69;64.75
66670;DHT22;53568;52.164;4.472;2022-12-07T14:14:57;8.68;65.13
66670;DHT22;53568;52.164;4.472;2022-12-07T14:17:26;8.65;65.17
66670;DHT22;53568;52.164;4.472;2022-12-07T14:22:54;8.77;64.72
66670;DHT22;53568;52.164;4.472;2022-12-07T14:25:23;8.86;64.73
66670;DHT22;53568;52.164;4.472;2022-12-07T14:28:00;8.85;64.28
66670;DHT22;53568;52.164;4.472;2022-12-07T14:30:32;8.76;64.45
66670;DHT22;53568;52.164;4.472;2022-12-07T14:33:05;8.83;64.53
66670;DHT22;53568;52.164;4.472;2022-12-07T14:35:33;8.89;64.31
66670;DHT22;53568;52.164;4.472;2022-12-07T14:37:58;8.93;63.77
66670;DHT22;53568;52.164;4.472;2022-12-07T14:40:28;8.93;63.86
66670;DHT22;53568;52.164;4.472;2022-12-07T14:43:02;8.79;63.15
66670;DHT22;53568;52.164;4.472;2022-12-07T14:45:28;8.72;61.00
66670;DHT22;53568;52.164;4.472;2022-12-07T14:47:54;8.69;61.32
66670;DHT22;53568;52.164;4.472;2022-12-07T14:50:20;8.69;61.03
66670;DHT22;53568;52.164;4.472;2022-12-07T14:53:00;8.80;60.74
66670;DHT22;53568;52.164;4.472;2022-12-07T14:55:31;8.79;59.68
66670;DHT22;53568;52.164;4.472;2022-12-07T14:57:57;8.65;59.08
66670;DHT22;53568;52.164;4.472;2022-12-07T15:00:26;8.61;59.16
66670;DHT22;53568;52.164;4.472;2022-12-07T15:02:52;8.65;59.05
66670;DHT22;53568;52.164;4.472;2022-12-07T15:05:18;8.68;59.14
66670;DHT22;53568;52.164;4.472;2022-12-07T15:07:45;8.83;58.94
66670;DHT22;53568;52.164;4.472;2022-12-07T15:10:26;8.75;59.21
66670;DHT22;53568;52.164;4.472;2022-12-07T15:12:55;8.73;59.83
66670;DHT22;53568;52.164;4.472;2022-12-07T15:15:41;8.73;60.22
66670;DHT22;53568;52.164;4.472;2022-12-07T15:18:07;8.75;60.88
66670;DHT22;53568;52.164;4.472;2022-12-07T15:20:33;8.71;60.93
66670;DHT22;53568;52.164;4.472;2022-12-07T15:22:58;8.66;62.24
66670;DHT22;53568;52.164;4.472;2022-12-07T15:25:24;8.52;65.32
66670;DHT22;53568;52.164;4.472;2022-12-07T15:27:49;8.52;66.44
66670;DHT22;53568;52.164;4.472;2022-12-07T15:30:15;8.41;67.21
66670;DHT22;53568;52.164;4.472;2022-12-07T15:32:40;8.38;66.70
66670;DHT22;53568;52.164;4.472;2022-12-07T15:35:06;8.42;66.54
66670;DHT22;53568;52.164;4.472;2022-12-07T15:37:32;8.44;65.81
66670;DHT22;53568;52.164;4.472;2022-12-07T15:39:58;8.34;64.10
66670;DHT22;53568;52.164;4.472;2022-12-07T15:42:23;8.22;65.49
66670;DHT22;53568;52.164;4.472;2022-12-07T15:44:49;8.28;66.08
66670;DHT22;53568;52.164;4.472;2022-12-07T15:47:36;8.31;66.81
66670;DHT22;53568;52.164;4.472;2022-12-07T15:50:05;8.24;67.65
66670;DHT22;53568;52.164;4.472;2022-12-07T15:52:32;8.31;67.73
66670;DHT22;53568;52.164;4.472;2022-12-07T15:54:58;8.39;67.59
66670;DHT22;53568;52.164;4.472;2022-12-07T15:57:25;8.29;68.15
66670;DHT22;53568;52.164;4.472;2022-12-07T15:59:51;8.37;67.95
66670;DHT22;53568;52.164;4.472;2022-12-07T16:02:17;8.44;67.91
66670;DHT22;53568;52.164;4.472;2022-12-07T16:04:42;8.39;68.23
66670;DHT22;53568;52.164;4.472;2022-12-07T16:07:08;8.45;68.34
66670;DHT22;53568;52.164;4.472;2022-12-07T16:09:34;8.55;68.19
66670;DHT22;53568;52.164;4.472;2022-12-07T16:11:59;8.55;68.40
66670;DHT22;53568;52.164;4.472;2022-12-07T16:14:25;8.52;68.64
66670;DHT22;53568;52.164;4.472;2022-12-07T16:16:50;8.58;68.71
66670;DHT22;53568;52.164;4.472;2022-12-07T16:19:16;8.65;68.49
66670;DHT22;53568;52.164;4.472;2022-12-07T16:21:41;8.68;68.29
66670;DHT22;53568;52.164;4.472;2022-12-07T16:24:08;8.69;68.30
66670;DHT22;53568;52.164;4.472;2022-12-07T16:26:33;8.69;67.93
66670;DHT22;53568;52.164;4.472;2022-12-07T16:28:59;8.65;67.85
66670;DHT22;53568;52.164;4.472;2022-12-07T16:31:26;8.73;67.67
66670;DHT22;53568;52.164;4.472;2022-12-07T16:33:54;8.72;66.88
66670;DHT22;53568;52.164;4.472;2022-12-07T16:36:21;8.59;65.97
66670;DHT22;53568;52.164;4.472;2022-12-07T16:38:49;8.75;65.96
66670;DHT22;53568;52.164;4.472;2022-12-07T16:41:15;8.75;66.26
66670;DHT22;53568;52.164;4.472;2022-12-07T16:43:40;8.77;66.79
66670;DHT22;53568;52.164;4.472;2022-12-07T16:46:06;8.85;67.16
66670;DHT22;53568;52.164;4.472;2022-12-07T16:48:35;8.83;67.53
66670;DHT22;53568;52.164;4.472;2022-12-07T16:51:06;8.85;67.68
66670;DHT22;53568;52.164;4.472;2022-12-07T16:53:34;8.86;67.35
66670;DHT22;53568;52.164;4.472;2022-12-07T16:56:00;8.66;67.27
66670;DHT22;53568;52.164;4.472;2022-12-07T16:58:25;8.38;66.72
66670;DHT22;53568;52.164;4.472;2022-12-07T17:00:51;8.37;66.59
66670;DHT22;53568;52.164;4.472;2022-12-07T17:03:17;8.21;66.97
66670;DHT22;53568;52.164;4.472;2022-12-07T17:05:44;7.98;68.54
66670;DHT22;53568;52.164;4.472;2022-12-07T17:08:11;7.77;71.34
66670;DHT22;53568;52.164;4.472;2022-12-07T17:10:40;7.60;72.40
66670;DHT22;53568;52.164;4.472;2022-12-07T17:13:07;7.43;72.66
66670;DHT22;53568;52.164;4.472;2022-12-07T17:16:03;7.51;72.84
66670;DHT22;53568;52.164;4.472;2022-12-07T17:18:32;7.66;72.82
66670;DHT22;53568;52.164;4.472;2022-12-07T17:21:04;7.71;72.88
66670;DHT22;53568;52.164;4.472;2022-12-07T17:23:31;7.78;72.79
66670;DHT22;53568;52.164;4.472;2022-12-07T17:26:07;7.85;72.63
66670;DHT22;53568;52.164;4.472;2022-12-07T17:28:33;7.77;72.46
66670;DHT22;53568;52.164;4.472;2022-12-07T17:30:59;7.75;72.67
66670;DHT22;53568;52.164;4.472;2022-12-07T17:33:24;7.84;72.43
66670;DHT22;53568;52.164;4.472;2022-12-07T17:35:50;7.91;72.24
66670;DHT22;53568;52.164;4.472;2022-12-07T17:38:15;7.88;71.98
66670;DHT22;53568;52.164;4.472;2022-12-07T17:40:41;7.85;71.63
66670;DHT22;53568;52.164;4.472;2022-12-07T17:43:06;7.93;71.37
66670;DHT22;53568;52.164;4.472;2022-12-07T17:45:31;7.98;71.34
66670;DHT22;53568;52.164;4.472;2022-12-07T17:47:57;7.95;71.63
66670;DHT22;53568;52.164;4.472;2022-12-07T17:50:22;7.98;71.78
66670;DHT22;53568;52.164;4.472;2022-12-07T17:53:10;7.98;72.13
66670;DHT22;53568;52.164;4.472;2022-12-07T17:55:36;7.95;72.11
66670;DHT22;53568;52.164;4.472;2022-12-07T17:58:02;7.97;72.28
66670;DHT22;53568;52.164;4.472;2022-12-07T18:00:28;7.94;72.10
66670;DHT22;53568;52.164;4.472;2022-12-07T18:02:54;8.01;71.88
66670;DHT22;53568;52.164;4.472;2022-12-07T18:05:20;7.50;73.42
66670;DHT22;53568;52.164;4.472;2022-12-07T18:07:46;7.07;76.32
66670;DHT22;53568;52.164;4.472;2022-12-07T18:10:11;7.07;77.50
66670;DHT22;53568;52.164;4.472;2022-12-07T18:12:38;7.09;77.89
66670;DHT22;53568;52.164;4.472;2022-12-07T18:15:05;7.23;77.69
66670;DHT22;53568;52.164;4.472;2022-12-07T18:17:31;7.31;77.41
66670;DHT22;53568;52.164;4.472;2022-12-07T18:19:57;7.39;77.49
66670;DHT22;53568;52.164;4.472;2022-12-07T18:22:22;7.40;77.91
66670;DHT22;53568;52.164;4.472;2022-12-07T18:24:48;7.42;77.77
66670;DHT22;53568;52.164;4.472;2022-12-07T18:27:13;7.44;77.54
66670;DHT22;53568;52.164;4.472;2022-12-07T18:29:39;7.47;77.47
66670;DHT22;53568;52.164;4.472;2022-12-07T18:32:04;7.47;76.41
66670;DHT22;53568;52.164;4.472;2022-12-07T18:34:32;7.64;76.23